Time;durP1;ratioP1;P1;durP2;ratioP2;P2;SDS_P1;SDS_P2;PMS_P1;PMS_P2;Temp;Humidity;BMP_temperature;BMP_pressure;BME280_temperature;BME280_humidity;BME280_pressure;Samples;Min_cycle;Max_cycle;Signal;HPM_P1;HPM_P2
2021/05/24 00:01:20;;;;;;;1.95;0.75;;;;;;;;;;5049031;28;20024;-80
2021/05/24 00:03:46;;;;;;;1.70;0.73;;;;;;;;;;5056137;28;20025;-80
2021/05/24 00:06:12;;;;;;;0.30;0.30;;;;;;;;;;5066227;28;20094;-80
2021/05/24 00:08:38;;;;;;;0.60;0.40;;;;;;;;;;5058840;28;20030;-80
2021/05/24 00:11:07;;;;;;;0.40;0.40;;;;;;;;;;5044258;28;20091;-81
2021/05/24 00:13:33;;;;;;;1.15;0.35;;;;;;;;;;5045474;28;20021;-80
2021/05/24 00:15:59;;;;;;;1.00;0.38;;;;;;;;;;5045997;28;20021;-80
2021/05/24 00:18:25;;;;;;;1.20;0.50;;;;;;;;;;5043589;28;20474;-80
2021/05/24 00:20:54;;;;;;;2.20;0.43;;;;;;;;;;5025853;28;20048;-80
2021/05/24 00:23:21;;;;;;;1.30;0.55;;;;;;;;;;5023756;28;20030;-80
2021/05/24 00:25:47;;;;;;;0.88;0.57;;;;;;;;;;5024275;28;20036;-80
2021/05/24 00:28:14;;;;;;;0.40;0.40;;;;;;;;;;5024389;28;20515;-80
2021/05/24 00:30:42;;;;;;;0.63;0.43;;;;;;;;;;5041088;28;20030;-80
2021/05/24 00:33:08;;;;;;;1.05;0.60;;;;;;;;;;5054983;28;20026;-80
2021/05/24 00:35:34;;;;;;;0.82;0.80;;;;;;;;;;5065706;28;20051;-80
2021/05/24 00:38:01;;;;;;;0.57;0.38;;;;;;;;;;5059902;28;20093;-79
2021/05/24 00:40:27;;;;;;;1.80;0.60;;;;;;;;;;5053596;28;20013;-80
2021/05/24 00:42:55;;;;;;;1.35;0.40;;;;;;;;;;5030298;28;20087;-80
2021/05/24 00:45:24;;;;;;;0.98;0.70;;;;;;;;;;5024693;28;20335;-81
2021/05/24 00:47:51;;;;;;;0.60;0.60;;;;;;;;;;5025191;28;20526;-78
2021/05/24 00:50:17;;;;;;;0.90;0.82;;;;;;;;;;5023752;28;20057;-81
2021/05/24 00:52:43;;;;;;;1.42;0.63;;;;;;;;;;5025598;28;20034;-78
2021/05/24 00:55:11;;;;;;;1.65;0.73;;;;;;;;;;5025111;28;20102;-78
2021/05/24 00:57:37;;;;;;;0.47;0.40;;;;;;;;;;5030872;28;20022;-77
2021/05/24 01:00:06;;;;;;;1.10;0.50;;;;;;;;;;5033989;28;20018;-79
2021/05/24 01:02:32;;;;;;;0.50;0.40;;;;;;;;;;5059819;28;20029;-79
2021/05/24 01:04:58;;;;;;;1.98;0.60;;;;;;;;;;5056920;28;20025;-79
2021/05/24 01:07:25;;;;;;;0.40;0.40;;;;;;;;;;5053869;28;20098;-79
2021/05/24 01:09:51;;;;;;;0.32;0.32;;;;;;;;;;5054682;28;20033;-79
2021/05/24 01:12:17;;;;;;;0.47;0.35;;;;;;;;;;5051801;28;20034;-79
2021/05/24 01:14:43;;;;;;;0.50;0.50;;;;;;;;;;5047092;28;20025;-79
2021/05/24 01:17:09;;;;;;;0.55;0.40;;;;;;;;;;5042044;28;20125;-80
2021/05/24 01:19:42;;;;;;;0.77;0.50;;;;;;;;;;5035552;28;20037;-79
2021/05/24 01:22:15;;;;;;;2.25;0.30;;;;;;;;;;5048495;28;20069;-80
2021/05/24 01:24:41;;;;;;;6.20;0.57;;;;;;;;;;5048979;28;20036;-79
2021/05/24 01:27:07;;;;;;;0.85;0.50;;;;;;;;;;5048309;28;20034;-80
2021/05/24 01:29:33;;;;;;;1.67;0.60;;;;;;;;;;5051730;28;20040;-79
2021/05/24 01:31:59;;;;;;;2.17;0.60;;;;;;;;;;5066851;28;20023;-79
2021/05/24 01:34:25;;;;;;;1.13;0.45;;;;;;;;;;5049865;28;20113;-80
2021/05/24 01:36:51;;;;;;;0.88;0.50;;;;;;;;;;5047664;28;20033;-78
2021/05/24 01:39:19;;;;;;;2.25;0.45;;;;;;;;;;5030650;28;20051;-79
2021/05/24 01:41:46;;;;;;;1.88;0.60;;;;;;;;;;5026683;28;20045;-79
2021/05/24 01:44:12;;;;;;;0.47;0.32;;;;;;;;;;5028129;28;20034;-78
2021/05/24 01:46:38;;;;;;;0.40;0.40;;;;;;;;;;5034151;28;20018;-79
2021/05/24 01:49:05;;;;;;;1.92;0.73;;;;;;;;;;5059546;22;20113;-80
2021/05/24 01:51:31;;;;;;;0.47;0.47;;;;;;;;;;5045422;28;20465;-82
2021/05/24 01:53:57;;;;;;;1.55;0.50;;;;;;;;;;5041490;28;20117;-81
2021/05/24 01:56:23;;;;;;;0.75;0.50;;;;;;;;;;5060180;28;20029;-82
2021/05/24 01:58:49;;;;;;;0.60;0.60;;;;;;;;;;5061825;28;20047;-82
2021/05/24 02:01:15;;;;;;;1.85;0.65;;;;;;;;;;5061643;28;20024;-82
2021/05/24 02:03:44;;;;;;;0.60;0.40;;;;;;;;;;5054201;28;20056;-82
2021/05/24 02:06:10;;;;;;;0.75;0.75;;;;;;;;;;5055820;28;20033;-82
2021/05/24 02:08:36;;;;;;;0.35;0.35;;;;;;;;;;5058574;28;20525;-82
2021/05/24 02:11:03;;;;;;;0.38;0.30;;;;;;;;;;5060131;28;20096;-83
2021/05/24 02:13:29;;;;;;;0.63;0.50;;;;;;;;;;5058536;28;20487;-81
2021/05/24 02:15:55;;;;;;;0.70;0.45;;;;;;;;;;5060076;28;20076;-82
2021/05/24 02:18:22;;;;;;;0.57;0.50;;;;;;;;;;5060237;28;20025;-82
2021/05/24 02:20:48;;;;;;;0.45;0.45;;;;;;;;;;5058240;28;20064;-82
2021/05/24 02:23:14;;;;;;;0.82;0.50;;;;;;;;;;5059496;28;20035;-82
2021/05/24 02:25:40;;;;;;;0.88;0.70;;;;;;;;;;5057676;28;20086;-82
2021/05/24 02:28:07;;;;;;;0.40;0.40;;;;;;;;;;5058987;28;20036;-81
2021/05/24 02:30:34;;;;;;;0.50;0.50;;;;;;;;;;5059562;28;20092;-82
2021/05/24 02:33:00;;;;;;;1.38;0.52;;;;;;;;;;5057095;28;20021;-82
2021/05/24 02:35:27;;;;;;;0.30;0.30;;;;;;;;;;5055288;28;20029;-82
2021/05/24 02:37:54;;;;;;;0.30;0.30;;;;;;;;;;5059805;28;20023;-82
2021/05/24 02:40:20;;;;;;;0.57;0.28;;;;;;;;;;5059869;28;20028;-82
2021/05/24 02:42:47;;;;;;;0.35;0.20;;;;;;;;;;5060040;28;20033;-82
2021/05/24 02:45:16;;;;;;;1.45;0.60;;;;;;;;;;5061220;28;20075;-82
2021/05/24 02:47:42;;;;;;;2.10;0.30;;;;;;;;;;5061456;28;20043;-82
2021/05/24 02:50:10;;;;;;;0.50;0.47;;;;;;;;;;5061475;28;20021;-82
2021/05/24 02:52:36;;;;;;;0.50;0.50;;;;;;;;;;5062398;28;20382;-82
2021/05/24 02:55:03;;;;;;;0.70;0.45;;;;;;;;;;5062435;28;20021;-82
2021/05/24 02:57:29;;;;;;;0.50;0.32;;;;;;;;;;5062585;28;20025;-82
2021/05/24 02:59:55;;;;;;;0.40;0.40;;;;;;;;;;5063201;28;20018;-82
2021/05/24 03:02:27;;;;;;;0.63;0.50;;;;;;;;;;5063146;28;20029;-82
2021/05/24 03:04:53;;;;;;;0.40;0.40;;;;;;;;;;5050134;28;20076;-82
2021/05/24 03:07:19;;;;;;;0.50;0.40;;;;;;;;;;5061917;28;20153;-82
2021/05/24 03:09:45;;;;;;;0.30;0.30;;;;;;;;;;5064988;28;20021;-81
2021/05/24 03:12:12;;;;;;;0.45;0.45;;;;;;;;;;5065475;28;20092;-82
2021/05/24 03:14:38;;;;;;;0.50;0.40;;;;;;;;;;5067544;28;20049;-81
2021/05/24 03:17:04;;;;;;;0.63;0.50;;;;;;;;;;5069968;28;20495;-81
2021/05/24 03:19:30;;;;;;;0.45;0.45;;;;;;;;;;5073531;28;20029;-80
2021/05/24 03:21:56;;;;;;;0.75;0.40;;;;;;;;;;5072458;28;20104;-81
2021/05/24 03:24:22;;;;;;;2.00;0.50;;;;;;;;;;5073109;28;20032;-81
2021/05/24 03:26:48;;;;;;;0.35;0.35;;;;;;;;;;5070940;28;20028;-80
2021/05/24 03:29:14;;;;;;;0.47;0.47;;;;;;;;;;5069571;28;20370;-80
2021/05/24 03:31:40;;;;;;;0.35;0.30;;;;;;;;;;5069787;28;20029;-82
2021/05/24 03:34:07;;;;;;;0.47;0.43;;;;;;;;;;5070270;28;20021;-81
2021/05/24 03:36:33;;;;;;;0.85;0.50;;;;;;;;;;5070233;28;20055;-81
2021/05/24 03:38:59;;;;;;;0.95;0.43;;;;;;;;;;5070169;28;20384;-81
2021/05/24 03:41:25;;;;;;;1.10;0.50;;;;;;;;;;5070325;28;20025;-81
2021/05/24 03:43:51;;;;;;;0.93;0.50;;;;;;;;;;5068773;28;20051;-81
2021/05/24 03:46:17;;;;;;;1.88;0.65;;;;;;;;;;5061131;28;20492;-81
2021/05/24 03:48:43;;;;;;;0.82;0.60;;;;;;;;;;5058906;28;20098;-81
2021/05/24 03:51:09;;;;;;;0.40;0.40;;;;;;;;;;5058517;28;20162;-82
2021/05/24 03:53:36;;;;;;;0.68;0.40;;;;;;;;;;5056545;28;20025;-81
2021/05/24 03:56:03;;;;;;;0.88;0.70;;;;;;;;;;5057816;28;20021;-82
2021/05/24 03:58:29;;;;;;;1.38;0.70;;;;;;;;;;5058639;28;20049;-82
2021/05/24 04:00:55;;;;;;;0.98;0.40;;;;;;;;;;5054399;28;20145;-82
2021/05/24 04:03:22;;;;;;;1.33;0.60;;;;;;;;;;5048974;28;20101;-82
2021/05/24 04:05:51;;;;;;;0.40;0.40;;;;;;;;;;5057336;28;20045;-82
2021/05/24 04:08:18;;;;;;;0.95;0.60;;;;;;;;;;5057170;28;20040;-82
2021/05/24 04:10:52;;;;;;;0.38;0.38;;;;;;;;;;5056978;28;20044;-82
2021/05/24 04:13:18;;;;;;;1.85;0.43;;;;;;;;;;5056615;28;20408;-81
2021/05/24 04:15:48;;;;;;;1.63;0.88;;;;;;;;;;5055764;28;20025;-83
2021/05/24 04:18:16;;;;;;;0.90;0.70;;;;;;;;;;5056663;28;20112;-83
2021/05/24 04:20:44;;;;;;;0.60;0.60;;;;;;;;;;5057625;28;20028;-82
2021/05/24 04:23:10;;;;;;;0.50;0.50;;;;;;;;;;5062117;28;20102;-82
2021/05/24 04:25:36;;;;;;;0.73;0.60;;;;;;;;;;5065236;28;20064;-82
2021/05/24 04:28:02;;;;;;;0.50;0.50;;;;;;;;;;5065379;28;20051;-81
2021/05/24 04:30:28;;;;;;;3.55;0.70;;;;;;;;;;5052572;28;20103;-80
2021/05/24 04:32:54;;;;;;;1.25;0.75;;;;;;;;;;5046209;28;20039;-78
2021/05/24 04:35:20;;;;;;;1.08;0.70;;;;;;;;;;5055447;28;20021;-79
2021/05/24 04:37:46;;;;;;;0.40;0.38;;;;;;;;;;5058822;28;20056;-79
2021/05/24 04:40:16;;;;;;;1.30;0.43;;;;;;;;;;5061480;28;20036;-79
2021/05/24 04:42:42;;;;;;;0.40;0.40;;;;;;;;;;5058520;28;20029;-79
2021/05/24 04:45:09;;;;;;;0.82;0.60;;;;;;;;;;5057358;28;20037;-78
2021/05/24 04:47:35;;;;;;;0.68;0.45;;;;;;;;;;5056925;28;20041;-79
2021/05/24 04:50:01;;;;;;;1.30;0.60;;;;;;;;;;5057075;28;20071;-78
2021/05/24 04:52:27;;;;;;;0.70;0.52;;;;;;;;;;5058580;28;20052;-79
2021/05/24 04:54:53;;;;;;;0.85;0.60;;;;;;;;;;5056698;28;20029;-79
2021/05/24 04:57:19;;;;;;;0.70;0.20;;;;;;;;;;5054866;28;20079;-78
2021/05/24 04:59:46;;;;;;;0.93;0.55;;;;;;;;;;5054949;28;20035;-79
2021/05/24 05:02:12;;;;;;;0.57;0.55;;;;;;;;;;5054140;28;20057;-79
2021/05/24 05:04:38;;;;;;;0.55;0.30;;;;;;;;;;5039429;28;20516;-79
2021/05/24 05:07:04;;;;;;;0.38;0.30;;;;;;;;;;5035590;28;20029;-79
2021/05/24 05:09:31;;;;;;;0.40;0.40;;;;;;;;;;5037315;28;20109;-78
2021/05/24 05:11:57;;;;;;;0.80;0.52;;;;;;;;;;5042140;28;20025;-77
2021/05/24 05:14:23;;;;;;;0.30;0.30;;;;;;;;;;5062828;28;20029;-81
2021/05/24 05:16:49;;;;;;;0.70;0.45;;;;;;;;;;5063319;28;20026;-80
2021/05/24 05:19:18;;;;;;;0.77;0.57;;;;;;;;;;5066274;28;20034;-81
2021/05/24 05:21:45;;;;;;;0.85;0.50;;;;;;;;;;5066916;28;20085;-80
2021/05/24 05:24:11;;;;;;;0.60;0.45;;;;;;;;;;5066319;28;20036;-80
2021/05/24 05:26:37;;;;;;;0.47;0.35;;;;;;;;;;5067675;28;20067;-81
2021/05/24 05:29:03;;;;;;;0.88;0.40;;;;;;;;;;5069492;28;20037;-82
2021/05/24 05:31:30;;;;;;;0.55;0.55;;;;;;;;;;5065374;28;20064;-82
2021/05/24 05:33:56;;;;;;;0.60;0.32;;;;;;;;;;5058065;28;20045;-81
2021/05/24 05:36:24;;;;;;;0.30;0.30;;;;;;;;;;5049181;28;20047;-82
2021/05/24 05:38:51;;;;;;;0.50;0.50;;;;;;;;;;5053734;28;20033;-82
2021/05/24 05:41:17;;;;;;;0.30;0.30;;;;;;;;;;5066699;28;20025;-81
2021/05/24 05:43:43;;;;;;;0.22;0.22;;;;;;;;;;5065876;28;20159;-81
2021/05/24 05:46:10;;;;;;;0.30;0.30;;;;;;;;;;5046122;28;20315;-80
2021/05/24 05:48:36;;;;;;;0.40;0.40;;;;;;;;;;5045030;28;20021;-80
2021/05/24 05:51:03;;;;;;;0.95;0.50;;;;;;;;;;5043941;28;20114;-80
2021/05/24 05:53:29;;;;;;;0.40;0.32;;;;;;;;;;5058089;28;20052;-80
2021/05/24 05:55:55;;;;;;;1.33;0.65;;;;;;;;;;5045214;28;20026;-79
2021/05/24 05:58:21;;;;;;;0.40;0.40;;;;;;;;;;5062621;28;20021;-80
2021/05/24 06:00:47;;;;;;;0.75;0.40;;;;;;;;;;5065783;28;20025;-81
2021/05/24 06:03:15;;;;;;;1.10;0.50;;;;;;;;;;5050184;28;20072;-81
2021/05/24 06:05:41;;;;;;;1.08;0.35;;;;;;;;;;5050209;28;20488;-81
2021/05/24 06:08:07;;;;;;;0.95;0.85;;;;;;;;;;5046384;28;20092;-80
2021/05/24 06:10:34;;;;;;;1.00;0.63;;;;;;;;;;5048423;28;20029;-80
2021/05/24 06:13:00;;;;;;;0.95;0.57;;;;;;;;;;5047252;28;20033;-80
2021/05/24 06:15:26;;;;;;;0.40;0.40;;;;;;;;;;5049191;28;20045;-81
2021/05/24 06:17:52;;;;;;;0.40;0.40;;;;;;;;;;5048168;28;20044;-81
2021/05/24 06:20:18;;;;;;;0.52;0.45;;;;;;;;;;5048723;28;20025;-81
2021/05/24 06:22:44;;;;;;;0.40;0.35;;;;;;;;;;5057018;28;20028;-82
2021/05/24 06:25:11;;;;;;;0.82;0.40;;;;;;;;;;5067107;28;20021;-81
2021/05/24 06:27:38;;;;;;;1.05;0.40;;;;;;;;;;5069724;28;20025;-80
2021/05/24 06:30:07;;;;;;;0.40;0.40;;;;;;;;;;5069114;28;20032;-80
2021/05/24 06:32:33;;;;;;;0.82;0.35;;;;;;;;;;5069044;28;20033;-80
2021/05/24 06:34:59;;;;;;;0.57;0.32;;;;;;;;;;5062416;28;20049;-81
2021/05/24 06:37:26;;;;;;;0.85;0.20;;;;;;;;;;5056561;28;20025;-82
2021/05/24 06:39:52;;;;;;;0.40;0.40;;;;;;;;;;5061014;28;20025;-81
2021/05/24 06:42:18;;;;;;;0.43;0.40;;;;;;;;;;5065186;28;20013;-82
2021/05/24 06:44:46;;;;;;;0.28;0.25;;;;;;;;;;5056998;28;20013;-81
2021/05/24 06:47:12;;;;;;;0.63;0.30;;;;;;;;;;5046536;28;20093;-82
2021/05/24 06:49:38;;;;;;;0.40;0.38;;;;;;;;;;5067400;28;20036;-80
2021/05/24 06:52:04;;;;;;;0.47;0.22;;;;;;;;;;5070932;28;20029;-80
2021/05/24 06:54:31;;;;;;;0.55;0.30;;;;;;;;;;5066524;28;20060;-82
2021/05/24 06:56:57;;;;;;;0.30;0.30;;;;;;;;;;5067481;28;20029;-83
2021/05/24 06:59:24;;;;;;;0.60;0.50;;;;;;;;;;5082808;28;20032;-83
2021/05/24 07:01:50;;;;;;;0.32;0.32;;;;;;;;;;5062728;28;20025;-82
2021/05/24 07:04:16;;;;;;;0.63;0.30;;;;;;;;;;5058101;28;20064;-82
2021/05/24 07:06:42;;;;;;;0.30;0.30;;;;;;;;;;5051395;28;20032;-83
2021/05/24 07:09:09;;;;;;;0.57;0.20;;;;;;;;;;5051748;28;20045;-84
2021/05/24 07:11:35;;;;;;;1.15;0.50;;;;;;;;;;5048919;28;20021;-83
2021/05/24 07:14:03;;;;;;;0.73;0.32;;;;;;;;;;5052007;28;20053;-83
2021/05/24 07:16:29;;;;;;;0.88;0.60;;;;;;;;;;5052699;28;20029;-83
2021/05/24 07:18:55;;;;;;;1.35;0.40;;;;;;;;;;5051833;28;20029;-83
2021/05/24 07:21:22;;;;;;;0.98;0.60;;;;;;;;;;5052235;28;20068;-82
2021/05/24 07:23:48;;;;;;;1.23;0.40;;;;;;;;;;5070303;28;20100;-83
2021/05/24 07:26:14;;;;;;;0.28;0.28;;;;;;;;;;5071404;28;20039;-82
2021/05/24 07:28:40;;;;;;;0.85;0.35;;;;;;;;;;5072466;28;20037;-82
2021/05/24 07:31:06;;;;;;;0.68;0.40;;;;;;;;;;5068696;28;20021;-83
2021/05/24 07:33:32;;;;;;;0.40;0.40;;;;;;;;;;5062047;28;20021;-82
2021/05/24 07:35:58;;;;;;;0.28;0.28;;;;;;;;;;5071797;28;20032;-83
2021/05/24 07:38:24;;;;;;;0.10;0.10;;;;;;;;;;5071984;28;20036;-83
2021/05/24 07:40:51;;;;;;;0.30;0.30;;;;;;;;;;5071262;28;20036;-83
2021/05/24 07:43:18;;;;;;;1.95;0.35;;;;;;;;;;5068437;28;20052;-82
2021/05/24 07:45:44;;;;;;;0.88;0.45;;;;;;;;;;5066743;28;20033;-83
2021/05/24 07:48:10;;;;;;;0.50;0.25;;;;;;;;;;5066566;28;20021;-82
2021/05/24 07:50:36;;;;;;;0.35;0.35;;;;;;;;;;5072249;28;20100;-82
2021/05/24 07:53:05;;;;;;;0.43;0.40;;;;;;;;;;5071059;28;20045;-82
2021/05/24 07:55:31;;;;;;;2.05;0.20;;;;;;;;;;5072420;28;20055;-81
2021/05/24 07:57:57;;;;;;;1.13;0.40;;;;;;;;;;5073192;28;20090;-81
2021/05/24 08:00:26;;;;;;;1.15;0.88;;;;;;;;;;5073799;28;20035;-81
2021/05/24 08:02:52;;;;;;;0.55;0.32;;;;;;;;;;5058517;28;20171;-82
2021/05/24 08:05:18;;;;;;;0.77;0.40;;;;;;;;;;5069602;28;20025;-82
2021/05/24 08:07:45;;;;;;;0.82;0.22;;;;;;;;;;5070429;28;20029;-83
2021/05/24 08:10:11;;;;;;;0.30;0.30;;;;;;;;;;5069231;28;20017;-83
2021/05/24 08:12:39;;;;;;;2.45;0.30;;;;;;;;;;5070432;28;20031;-83
2021/05/24 08:15:09;;;;;;;0.30;0.30;;;;;;;;;;5071387;28;20094;-82
2021/05/24 08:17:36;;;;;;;0.57;0.45;;;;;;;;;;5071958;28;20036;-83
2021/05/24 08:20:03;;;;;;;0.52;0.35;;;;;;;;;;5071666;28;20024;-82
2021/05/24 08:22:29;;;;;;;0.73;0.30;;;;;;;;;;5072503;28;20021;-82
2021/05/24 08:24:55;;;;;;;0.40;0.40;;;;;;;;;;5071423;28;20029;-83
2021/05/24 08:27:21;;;;;;;0.85;0.60;;;;;;;;;;5070939;28;20021;-83
2021/05/24 08:29:47;;;;;;;1.00;0.47;;;;;;;;;;5069585;28;20085;-83
2021/05/24 08:32:13;;;;;;;0.40;0.40;;;;;;;;;;5070316;28;20032;-83
2021/05/24 08:34:39;;;;;;;0.50;0.50;;;;;;;;;;5072800;28;20025;-83
2021/05/24 08:37:05;;;;;;;0.85;0.60;;;;;;;;;;5070490;28;20032;-83
2021/05/24 08:39:31;;;;;;;0.45;0.45;;;;;;;;;;5088086;28;20025;-83
2021/05/24 08:41:58;;;;;;;0.93;0.40;;;;;;;;;;5088478;28;20025;-83
2021/05/24 08:44:26;;;;;;;0.38;0.30;;;;;;;;;;5072616;28;20033;-83
2021/05/24 08:46:52;;;;;;;0.50;0.43;;;;;;;;;;5071007;28;20048;-83
2021/05/24 08:49:18;;;;;;;0.50;0.50;;;;;;;;;;5069186;28;20029;-83
2021/05/24 08:51:44;;;;;;;0.70;0.60;;;;;;;;;;5069757;28;20029;-83
2021/05/24 08:54:10;;;;;;;0.38;0.38;;;;;;;;;;5075736;28;20017;-83
2021/05/24 08:56:39;;;;;;;0.28;0.28;;;;;;;;;;5064652;28;20024;-83
2021/05/24 08:59:05;;;;;;;0.50;0.50;;;;;;;;;;5064584;28;20017;-82
2021/05/24 09:01:31;;;;;;;0.60;0.50;;;;;;;;;;5061477;28;20026;-83
2021/05/24 09:04:04;;;;;;;0.40;0.40;;;;;;;;;;5047502;28;20105;-83
2021/05/24 09:06:34;;;;;;;0.38;0.38;;;;;;;;;;5050281;28;20060;-83
2021/05/24 09:09:07;;;;;;;0.45;0.32;;;;;;;;;;5049854;28;20034;-82
2021/05/24 09:11:33;;;;;;;0.38;0.38;;;;;;;;;;5053115;28;20085;-83
2021/05/24 09:14:00;;;;;;;0.20;0.20;;;;;;;;;;5069349;28;20025;-83
2021/05/24 09:16:31;;;;;;;0.55;0.55;;;;;;;;;;5068286;28;20025;-83
2021/05/24 09:19:17;;;;;;;1.25;0.40;;;;;;;;;;5070381;28;20051;-82
2021/05/24 09:21:50;;;;;;;0.40;0.40;;;;;;;;;;5070766;28;20040;-83
2021/05/24 09:24:20;;;;;;;0.63;0.40;;;;;;;;;;5070312;28;20021;-83
2021/05/24 09:26:46;;;;;;;1.33;0.80;;;;;;;;;;5067434;28;20040;-83
2021/05/24 09:29:13;;;;;;;0.50;0.50;;;;;;;;;;5066276;28;20097;-83
2021/05/24 09:31:39;;;;;;;0.73;0.38;;;;;;;;;;5058198;28;20053;-84
2021/05/24 09:34:06;;;;;;;0.40;0.40;;;;;;;;;;5067427;28;20021;-84
2021/05/24 09:36:36;;;;;;;0.60;0.50;;;;;;;;;;5071128;28;21046;-84
2021/05/24 09:39:08;;;;;;;0.50;0.50;;;;;;;;;;5070176;28;20370;-83
2021/05/24 09:41:45;;;;;;;0.65;0.65;;;;;;;;;;5063095;28;20101;-83
2021/05/24 09:44:21;;;;;;;0.52;0.52;;;;;;;;;;5051799;28;20083;-83
2021/05/24 09:46:48;;;;;;;0.98;0.40;;;;;;;;;;5049291;28;20034;-83
2021/05/24 09:49:14;;;;;;;0.43;0.30;;;;;;;;;;5043126;28;20029;-83
2021/05/24 09:51:40;;;;;;;0.32;0.32;;;;;;;;;;5050040;28;20033;-84
2021/05/24 09:54:13;;;;;;;0.98;0.50;;;;;;;;;;5047627;28;20029;-81
2021/05/24 09:56:41;;;;;;;0.77;0.40;;;;;;;;;;5047661;28;20032;-83
2021/05/24 09:59:13;;;;;;;1.35;0.50;;;;;;;;;;5051058;28;20022;-83
2021/05/24 10:01:52;;;;;;;0.70;0.50;;;;;;;;;;5062300;28;20024;-82
2021/05/24 10:04:21;;;;;;;1.23;0.90;;;;;;;;;;5073085;28;20098;-82
2021/05/24 10:06:48;;;;;;;3.85;1.23;;;;;;;;;;5074473;28;20049;-82
2021/05/24 10:09:14;;;;;;;0.65;0.65;;;;;;;;;;5072981;28;20151;-83
2021/05/24 10:11:43;;;;;;;0.70;0.70;;;;;;;;;;5072400;28;20031;-83
2021/05/24 10:14:09;;;;;;;0.50;0.50;;;;;;;;;;5073849;28;20017;-83
2021/05/24 10:16:37;;;;;;;0.50;0.50;;;;;;;;;;5073723;28;20063;-82
2021/05/24 10:19:04;;;;;;;0.80;0.60;;;;;;;;;;5075181;28;20017;-82
2021/05/24 10:21:30;;;;;;;1.27;0.60;;;;;;;;;;5075153;28;20025;-83
2021/05/24 10:23:56;;;;;;;3.03;0.80;;;;;;;;;;5074572;28;20032;-83
2021/05/24 10:26:23;;;;;;;0.98;0.70;;;;;;;;;;5074152;28;20087;-83
2021/05/24 10:28:50;;;;;;;0.65;0.65;;;;;;;;;;5076224;28;20016;-82
2021/05/24 10:31:17;;;;;;;2.70;0.98;;;;;;;;;;5079171;28;20021;-82
2021/05/24 10:33:44;;;;;;;1.23;0.70;;;;;;;;;;5071946;28;20021;-82
2021/05/24 10:36:19;;;;;;;1.17;0.57;;;;;;;;;;5058499;28;20021;-82
2021/05/24 10:39:05;;;;;;;2.05;0.50;;;;;;;;;;5058921;28;20018;-82
2021/05/24 10:41:48;;;;;;;0.60;0.60;;;;;;;;;;5058450;28;20161;-82
2021/05/24 10:44:18;;;;;;;0.98;0.82;;;;;;;;;;5057929;28;20014;-81
2021/05/24 10:46:44;;;;;;;1.13;0.90;;;;;;;;;;5057324;28;20020;-82
2021/05/24 10:49:10;;;;;;;0.85;0.60;;;;;;;;;;5063919;28;20017;-80
2021/05/24 10:51:45;;;;;;;0.50;0.50;;;;;;;;;;5075261;28;20527;-82
2021/05/24 10:54:21;;;;;;;1.10;0.90;;;;;;;;;;5074476;28;20513;-82
2021/05/24 10:57:02;;;;;;;0.77;0.77;;;;;;;;;;5072936;28;20001;-82
2021/05/24 11:02:15;;;;;;;2.63;0.80;;;;;;;;;;5069883;28;20067;-82
2021/05/24 11:04:55;;;;;;;0.85;0.50;;;;;;;;;;5070115;28;20012;-81
2021/05/24 11:07:40;;;;;;;0.63;0.57;;;;;;;;;;5071382;28;20044;-83
2021/05/24 11:10:18;;;;;;;1.40;0.60;;;;;;;;;;5066836;28;20079;-82
2021/05/24 11:12:55;;;;;;;0.60;0.60;;;;;;;;;;5062265;28;20029;-82
2021/05/24 11:15:21;;;;;;;0.50;0.50;;;;;;;;;;5064190;28;20114;-83
2021/05/24 11:18:00;;;;;;;1.08;0.52;;;;;;;;;;5064048;28;20102;-82
2021/05/24 11:20:33;;;;;;;0.77;0.63;;;;;;;;;;5059816;28;20021;-81
2021/05/24 11:28:18;;;;;;;0.80;0.80;;;;;;;;;;5064366;28;20102;-82
2021/05/24 11:30:44;;;;;;;0.73;0.50;;;;;;;;;;5076565;28;20021;-82
2021/05/24 11:33:29;;;;;;;0.73;0.60;;;;;;;;;;5061457;28;20028;-82
2021/05/24 11:35:55;;;;;;;0.57;0.57;;;;;;;;;;5055097;28;20520;-82
2021/05/24 11:38:28;;;;;;;0.55;0.55;;;;;;;;;;5060708;28;20029;-83
2021/05/24 11:41:11;;;;;;;0.60;0.60;;;;;;;;;;5063602;28;20062;-82
2021/05/24 11:43:41;;;;;;;1.17;0.80;;;;;;;;;;5059934;28;20017;-80
2021/05/24 11:46:08;;;;;;;2.30;0.50;;;;;;;;;;5065894;28;20021;-83
2021/05/24 11:48:36;;;;;;;0.65;0.65;;;;;;;;;;5066030;28;20048;-83
2021/05/24 11:51:04;;;;;;;0.80;0.57;;;;;;;;;;5067895;28;21483;-82
2021/05/24 11:53:30;;;;;;;0.63;0.63;;;;;;;;;;5069378;28;20020;-81
2021/05/24 11:56:06;;;;;;;2.85;0.88;;;;;;;;;;5076036;28;20031;-82
2021/05/24 11:58:32;;;;;;;0.75;0.75;;;;;;;;;;5089396;28;20028;-82
2021/05/24 12:01:05;;;;;;;0.70;0.70;;;;;;;;;;5073661;28;20025;-80
2021/05/24 12:03:31;;;;;;;0.80;0.63;;;;;;;;;;5059021;28;20032;-84
2021/05/24 12:05:57;;;;;;;0.68;0.68;;;;;;;;;;5060179;28;20109;-82
2021/05/24 12:08:24;;;;;;;0.70;0.70;;;;;;;;;;5059161;28;20043;-82
2021/05/24 12:10:59;;;;;;;0.77;0.77;;;;;;;;;;5061692;28;20509;-82
2021/05/24 12:13:25;;;;;;;0.60;0.60;;;;;;;;;;5064142;28;20021;-82
2021/05/24 12:16:01;;;;;;;0.93;0.63;;;;;;;;;;5064876;28;20052;-82
2021/05/24 12:18:30;;;;;;;0.70;0.70;;;;;;;;;;5067220;28;20029;-82
2021/05/24 12:20:57;;;;;;;0.68;0.63;;;;;;;;;;5070016;28;20028;-84
2021/05/24 12:23:24;;;;;;;0.70;0.70;;;;;;;;;;5066947;28;20021;-83
2021/05/24 12:25:52;;;;;;;2.63;1.13;;;;;;;;;;5065339;28;20017;-83
2021/05/24 12:28:18;;;;;;;0.93;0.80;;;;;;;;;;5061622;28;20107;-83
2021/05/24 12:30:52;;;;;;;0.70;0.70;;;;;;;;;;5059088;28;20086;-83
2021/05/24 12:33:18;;;;;;;0.80;0.80;;;;;;;;;;5060565;28;20029;-83
2021/05/24 12:35:50;;;;;;;4.45;1.20;;;;;;;;;;5044430;28;20033;-84
2021/05/24 12:38:29;;;;;;;1.02;0.82;;;;;;;;;;5045654;28;20084;-83
2021/05/24 12:40:56;;;;;;;1.17;0.68;;;;;;;;;;5041873;28;20017;-84
2021/05/24 12:43:22;;;;;;;0.93;0.70;;;;;;;;;;5040064;28;20032;-84
2021/05/24 12:45:49;;;;;;;3.83;1.02;;;;;;;;;;5040955;28;20501;-84
2021/05/24 12:48:16;;;;;;;0.95;0.82;;;;;;;;;;5053733;28;20037;-85
2021/05/24 12:50:44;;;;;;;0.85;0.60;;;;;;;;;;5061195;28;20079;-83
2021/05/24 12:53:11;;;;;;;1.27;0.90;;;;;;;;;;5059937;28;20378;-83
2021/05/24 12:55:37;;;;;;;1.25;0.60;;;;;;;;;;5059922;28;20024;-83
2021/05/24 12:58:10;;;;;;;1.02;0.77;;;;;;;;;;5059959;28;20101;-84
2021/05/24 13:00:46;;;;;;;1.10;0.80;;;;;;;;;;5058380;28;20029;-84
2021/05/24 13:03:14;;;;;;;0.93;0.70;;;;;;;;;;5058517;28;20175;-83
2021/05/24 13:05:40;;;;;;;0.68;0.65;;;;;;;;;;5060499;28;20025;-83
2021/05/24 13:08:06;;;;;;;0.88;0.65;;;;;;;;;;5059061;28;20135;-84
2021/05/24 13:10:43;;;;;;;0.63;0.60;;;;;;;;;;5061089;28;20021;-82
2021/05/24 13:13:15;;;;;;;0.63;0.63;;;;;;;;;;5059302;28;20052;-83
2021/05/24 13:15:44;;;;;;;0.95;0.70;;;;;;;;;;5058488;28;20021;-83
2021/05/24 13:19:00;;;;;;;0.70;0.65;;;;;;;;;;5059659;28;20021;-83
2021/05/24 13:31:37;;;;;;;1.60;0.90;;;;;;;;;;5054724;28;20048;-84
2021/05/24 13:34:04;;;;;;;1.17;0.50;;;;;;;;;;5047795;28;20480;-84
2021/05/24 13:36:34;;;;;;;1.50;0.82;;;;;;;;;;5036662;28;20021;-84
2021/05/24 13:39:01;;;;;;;1.67;0.70;;;;;;;;;;5046706;28;20033;-84
2021/05/24 13:41:27;;;;;;;1.50;0.50;;;;;;;;;;5058370;28;20064;-84
2021/05/24 13:43:54;;;;;;;0.55;0.50;;;;;;;;;;5056531;28;20025;-84
2021/05/24 13:46:21;;;;;;;1.67;0.55;;;;;;;;;;5060155;28;20041;-81
2021/05/24 13:48:47;;;;;;;2.10;0.93;;;;;;;;;;5075095;28;20031;-80
2021/05/24 13:51:15;;;;;;;0.93;0.60;;;;;;;;;;5062568;28;20021;-79
2021/05/24 13:53:41;;;;;;;0.50;0.50;;;;;;;;;;5064879;28;20475;-79
2021/05/24 13:56:07;;;;;;;3.03;0.90;;;;;;;;;;5068826;28;20051;-80
2021/05/24 13:58:33;;;;;;;1.10;1.00;;;;;;;;;;5065775;28;20029;-81
2021/05/24 14:00:59;;;;;;;1.52;0.70;;;;;;;;;;5065892;28;20031;-80
2021/05/24 14:03:26;;;;;;;1.05;0.70;;;;;;;;;;5060549;28;20056;-80
2021/05/24 14:05:52;;;;;;;0.63;0.60;;;;;;;;;;5044073;28;20021;-80
2021/05/24 14:08:18;;;;;;;0.70;0.50;;;;;;;;;;5042542;28;20061;-80
2021/05/24 14:10:44;;;;;;;0.40;0.40;;;;;;;;;;5064474;28;20457;-80
2021/05/24 14:13:12;;;;;;;0.93;0.60;;;;;;;;;;5070121;28;20084;-80
2021/05/24 14:15:38;;;;;;;0.70;0.70;;;;;;;;;;5069168;28;20112;-79
2021/05/24 14:18:04;;;;;;;0.32;0.30;;;;;;;;;;5064639;28;20082;-79
2021/05/24 14:20:30;;;;;;;0.50;0.50;;;;;;;;;;5065823;28;20036;-80
2021/05/24 14:22:56;;;;;;;0.63;0.63;;;;;;;;;;5068813;28;20028;-80
2021/05/24 14:25:22;;;;;;;1.13;0.50;;;;;;;;;;5068134;28;20435;-80
2021/05/24 14:27:48;;;;;;;0.30;0.30;;;;;;;;;;5070648;28;20021;-79
2021/05/24 14:30:15;;;;;;;0.50;0.50;;;;;;;;;;5069854;28;20386;-80
2021/05/24 14:32:41;;;;;;;0.55;0.50;;;;;;;;;;5062184;28;20044;-79
2021/05/24 14:35:07;;;;;;;1.30;0.60;;;;;;;;;;5049673;28;20025;-80
2021/05/24 14:37:34;;;;;;;0.82;0.55;;;;;;;;;;5050519;28;20056;-80
2021/05/24 14:40:00;;;;;;;1.30;0.77;;;;;;;;;;5052001;28;20021;-79
2021/05/24 14:42:26;;;;;;;0.77;0.47;;;;;;;;;;5068187;28;20076;-81
2021/05/24 14:44:52;;;;;;;0.57;0.52;;;;;;;;;;5066737;28;20037;-80
2021/05/24 14:47:19;;;;;;;0.63;0.50;;;;;;;;;;5067806;28;20029;-80
2021/05/24 14:49:46;;;;;;;2.10;0.70;;;;;;;;;;5066682;28;20055;-80
2021/05/24 14:52:12;;;;;;;0.50;0.50;;;;;;;;;;5067155;28;20036;-79
2021/05/24 14:54:38;;;;;;;0.80;0.60;;;;;;;;;;5067233;28;20028;-80
2021/05/24 14:57:05;;;;;;;0.68;0.40;;;;;;;;;;5066058;28;20028;-79
2021/05/24 14:59:31;;;;;;;0.50;0.50;;;;;;;;;;5063856;28;20040;-79
2021/05/24 15:01:57;;;;;;;0.65;0.40;;;;;;;;;;5065232;28;20480;-79
2021/05/24 15:04:23;;;;;;;0.80;0.80;;;;;;;;;;5053409;28;20025;-80